sensor_id;sensor_type;location;lat;lon;timestamp;P1;durP1;ratioP1;P2;durP2;ratioP2
75073;SDS011;63652;51.526;5.080;2022-11-15T00:01:18;34.35;;;16.75;;
75073;SDS011;63652;51.526;5.080;2022-11-15T00:03:43;39.65;;;16.90;;
75073;SDS011;63652;51.526;5.080;2022-11-15T00:06:09;35.08;;;15.85;;
75073;SDS011;63652;51.526;5.080;2022-11-15T00:08:35;39.55;;;16.90;;
75073;SDS011;63652;51.526;5.080;2022-11-15T00:11:02;47.22;;;19.98;;
75073;SDS011;63652;51.526;5.080;2022-11-15T00:13:27;35.47;;;17.10;;
75073;SDS011;63652;51.526;5.080;2022-11-15T00:15:56;42.78;;;17.92;;
75073;SDS011;63652;51.526;5.080;2022-11-15T00:18:23;40.05;;;15.98;;
75073;SDS011;63652;51.526;5.080;2022-11-15T00:20:48;42.17;;;18.75;;
75073;SDS011;63652;51.526;5.080;2022-11-15T00:23:13;47.33;;;20.70;;
75073;SDS011;63652;51.526;5.080;2022-11-15T00:25:39;39.80;;;18.33;;
75073;SDS011;63652;51.526;5.080;2022-11-15T00:28:04;43.35;;;18.70;;
75073;SDS011;63652;51.526;5.080;2022-11-15T00:30:30;34.53;;;16.17;;
75073;SDS011;63652;51.526;5.080;2022-11-15T00:32:55;39.78;;;18.73;;
75073;SDS011;63652;51.526;5.080;2022-11-15T00:35:21;39.00;;;16.90;;
75073;SDS011;63652;51.526;5.080;2022-11-15T00:37:46;37.95;;;18.38;;
75073;SDS011;63652;51.526;5.080;2022-11-15T00:40:12;37.67;;;19.15;;
75073;SDS011;63652;51.526;5.080;2022-11-15T00:42:38;37.33;;;16.85;;
75073;SDS011;63652;51.526;5.080;2022-11-15T00:45:04;36.40;;;17.73;;
75073;SDS011;63652;51.526;5.080;2022-11-15T00:47:29;42.67;;;19.02;;
75073;SDS011;63652;51.526;5.080;2022-11-15T00:49:55;37.75;;;17.58;;
75073;SDS011;63652;51.526;5.080;2022-11-15T00:52:20;37.42;;;17.30;;
75073;SDS011;63652;51.526;5.080;2022-11-15T00:54:46;38.17;;;17.35;;
75073;SDS011;63652;51.526;5.080;2022-11-15T00:57:11;33.42;;;16.45;;
75073;SDS011;63652;51.526;5.080;2022-11-15T00:59:36;39.63;;;17.85;;
75073;SDS011;63652;51.526;5.080;2022-11-15T01:02:02;34.60;;;16.90;;
75073;SDS011;63652;51.526;5.080;2022-11-15T01:04:27;40.28;;;19.33;;
75073;SDS011;63652;51.526;5.080;2022-11-15T01:06:53;45.50;;;20.08;;
75073;SDS011;63652;51.526;5.080;2022-11-15T01:09:18;43.95;;;19.23;;
75073;SDS011;63652;51.526;5.080;2022-11-15T01:11:44;40.28;;;19.48;;
75073;SDS011;63652;51.526;5.080;2022-11-15T01:14:09;39.08;;;19.17;;
75073;SDS011;63652;51.526;5.080;2022-11-15T01:16:34;38.70;;;19.05;;
75073;SDS011;63652;51.526;5.080;2022-11-15T01:19:00;41.10;;;21.45;;
75073;SDS011;63652;51.526;5.080;2022-11-15T01:21:25;45.15;;;21.45;;
75073;SDS011;63652;51.526;5.080;2022-11-15T01:23:54;47.30;;;22.23;;
75073;SDS011;63652;51.526;5.080;2022-11-15T01:26:21;43.95;;;20.90;;
75073;SDS011;63652;51.526;5.080;2022-11-15T01:28:46;50.65;;;21.50;;
75073;SDS011;63652;51.526;5.080;2022-11-15T01:31:13;47.38;;;21.08;;
75073;SDS011;63652;51.526;5.080;2022-11-15T01:33:40;38.63;;;18.10;;
75073;SDS011;63652;51.526;5.080;2022-11-15T01:36:06;43.53;;;19.58;;
75073;SDS011;63652;51.526;5.080;2022-11-15T01:38:33;40.70;;;19.73;;
75073;SDS011;63652;51.526;5.080;2022-11-15T01:40:58;38.08;;;19.33;;
75073;SDS011;63652;51.526;5.080;2022-11-15T01:43:25;34.88;;;17.60;;
75073;SDS011;63652;51.526;5.080;2022-11-15T01:46:37;38.03;;;17.67;;
75073;SDS011;63652;51.526;5.080;2022-11-15T01:48:46;45.90;;;19.02;;
75073;SDS011;63652;51.526;5.080;2022-11-15T01:51:13;38.55;;;18.48;;
75073;SDS011;63652;51.526;5.080;2022-11-15T01:53:41;39.63;;;17.67;;
75073;SDS011;63652;51.526;5.080;2022-11-15T01:56:10;32.33;;;18.38;;
75073;SDS011;63652;51.526;5.080;2022-11-15T01:58:38;35.80;;;17.98;;
75073;SDS011;63652;51.526;5.080;2022-11-15T02:01:03;38.22;;;18.38;;
75073;SDS011;63652;51.526;5.080;2022-11-15T02:03:32;39.85;;;19.23;;
75073;SDS011;63652;51.526;5.080;2022-11-15T02:06:02;32.63;;;17.58;;
75073;SDS011;63652;51.526;5.080;2022-11-15T02:08:28;40.17;;;18.52;;
75073;SDS011;63652;51.526;5.080;2022-11-15T02:10:54;34.60;;;18.90;;
75073;SDS011;63652;51.526;5.080;2022-11-15T02:13:19;36.88;;;17.90;;
75073;SDS011;63652;51.526;5.080;2022-11-15T02:15:49;34.72;;;17.38;;
75073;SDS011;63652;51.526;5.080;2022-11-15T02:18:26;32.80;;;15.52;;
75073;SDS011;63652;51.526;5.080;2022-11-15T02:31:11;34.25;;;16.48;;
75073;SDS011;63652;51.526;5.080;2022-11-15T02:41:27;42.08;;;19.02;;
75073;SDS011;63652;51.526;5.080;2022-11-15T02:43:59;29.88;;;15.82;;
75073;SDS011;63652;51.526;5.080;2022-11-15T02:49:16;28.70;;;15.18;;
75073;SDS011;63652;51.526;5.080;2022-11-15T02:51:42;34.38;;;16.02;;
75073;SDS011;63652;51.526;5.080;2022-11-15T02:54:14;33.60;;;16.05;;
75073;SDS011;63652;51.526;5.080;2022-11-15T02:56:42;33.42;;;16.73;;
75073;SDS011;63652;51.526;5.080;2022-11-15T02:59:27;30.95;;;15.35;;
75073;SDS011;63652;51.526;5.080;2022-11-15T03:02:28;31.15;;;16.42;;
75073;SDS011;63652;51.526;5.080;2022-11-15T03:05:19;27.08;;;15.10;;
75073;SDS011;63652;51.526;5.080;2022-11-15T03:13:36;31.90;;;17.45;;
75073;SDS011;63652;51.526;5.080;2022-11-15T03:16:03;35.55;;;17.65;;
75073;SDS011;63652;51.526;5.080;2022-11-15T03:18:38;33.17;;;16.73;;
75073;SDS011;63652;51.526;5.080;2022-11-15T03:21:08;35.03;;;17.70;;
75073;SDS011;63652;51.526;5.080;2022-11-15T03:23:34;40.42;;;19.25;;
75073;SDS011;63652;51.526;5.080;2022-11-15T03:26:01;33.35;;;18.05;;
75073;SDS011;63652;51.526;5.080;2022-11-15T03:31:14;30.75;;;16.08;;
75073;SDS011;63652;51.526;5.080;2022-11-15T03:33:59;31.13;;;15.32;;
75073;SDS011;63652;51.526;5.080;2022-11-15T03:36:26;28.40;;;15.23;;
75073;SDS011;63652;51.526;5.080;2022-11-15T03:38:53;30.42;;;15.00;;
75073;SDS011;63652;51.526;5.080;2022-11-15T03:41:22;33.58;;;16.85;;
75073;SDS011;63652;51.526;5.080;2022-11-15T03:44:18;30.10;;;14.73;;
75073;SDS011;63652;51.526;5.080;2022-11-15T03:47:10;31.13;;;14.68;;
75073;SDS011;63652;51.526;5.080;2022-11-15T03:49:44;25.50;;;14.82;;
75073;SDS011;63652;51.526;5.080;2022-11-15T03:52:14;29.38;;;15.02;;
75073;SDS011;63652;51.526;5.080;2022-11-15T03:54:49;27.30;;;14.45;;
75073;SDS011;63652;51.526;5.080;2022-11-15T03:57:18;30.80;;;14.70;;
75073;SDS011;63652;51.526;5.080;2022-11-15T03:59:43;32.30;;;16.17;;
75073;SDS011;63652;51.526;5.080;2022-11-15T04:02:09;30.20;;;16.15;;
75073;SDS011;63652;51.526;5.080;2022-11-15T04:04:34;32.35;;;15.75;;
75073;SDS011;63652;51.526;5.080;2022-11-15T04:06:59;36.40;;;17.17;;
75073;SDS011;63652;51.526;5.080;2022-11-15T04:09:25;35.83;;;16.88;;
75073;SDS011;63652;51.526;5.080;2022-11-15T04:11:50;30.15;;;16.70;;
75073;SDS011;63652;51.526;5.080;2022-11-15T04:14:15;28.58;;;14.93;;
75073;SDS011;63652;51.526;5.080;2022-11-15T04:16:41;27.88;;;15.38;;
75073;SDS011;63652;51.526;5.080;2022-11-15T04:19:06;31.77;;;15.10;;
75073;SDS011;63652;51.526;5.080;2022-11-15T04:21:50;29.52;;;14.85;;
75073;SDS011;63652;51.526;5.080;2022-11-15T04:24:34;33.90;;;14.82;;
75073;SDS011;63652;51.526;5.080;2022-11-15T04:26:59;31.00;;;15.93;;
75073;SDS011;63652;51.526;5.080;2022-11-15T04:29:25;37.03;;;17.55;;
75073;SDS011;63652;51.526;5.080;2022-11-15T04:32:00;38.05;;;17.60;;
75073;SDS011;63652;51.526;5.080;2022-11-15T04:34:29;37.75;;;16.65;;
75073;SDS011;63652;51.526;5.080;2022-11-15T04:36:54;33.72;;;16.33;;
75073;SDS011;63652;51.526;5.080;2022-11-15T04:39:41;36.50;;;18.10;;
75073;SDS011;63652;51.526;5.080;2022-11-15T04:42:08;31.63;;;17.38;;
75073;SDS011;63652;51.526;5.080;2022-11-15T04:44:33;37.85;;;16.73;;
75073;SDS011;63652;51.526;5.080;2022-11-15T04:46:59;34.72;;;16.55;;
75073;SDS011;63652;51.526;5.080;2022-11-15T04:49:24;35.47;;;15.50;;
75073;SDS011;63652;51.526;5.080;2022-11-15T04:51:50;32.15;;;16.92;;
75073;SDS011;63652;51.526;5.080;2022-11-15T04:54:15;29.10;;;15.50;;
75073;SDS011;63652;51.526;5.080;2022-11-15T04:56:40;30.05;;;15.20;;
75073;SDS011;63652;51.526;5.080;2022-11-15T04:59:06;37.60;;;16.67;;
75073;SDS011;63652;51.526;5.080;2022-11-15T05:01:31;30.63;;;15.65;;
75073;SDS011;63652;51.526;5.080;2022-11-15T05:03:57;29.38;;;14.75;;
75073;SDS011;63652;51.526;5.080;2022-11-15T05:06:40;36.42;;;16.80;;
75073;SDS011;63652;51.526;5.080;2022-11-15T05:09:06;35.75;;;17.25;;
75073;SDS011;63652;51.526;5.080;2022-11-15T05:11:31;33.60;;;15.60;;
75073;SDS011;63652;51.526;5.080;2022-11-15T05:13:57;32.85;;;15.68;;
75073;SDS011;63652;51.526;5.080;2022-11-15T05:16:22;30.33;;;15.00;;
75073;SDS011;63652;51.526;5.080;2022-11-15T05:18:50;29.90;;;15.02;;
75073;SDS011;63652;51.526;5.080;2022-11-15T05:21:16;28.95;;;14.93;;
75073;SDS011;63652;51.526;5.080;2022-11-15T05:23:42;33.47;;;14.15;;
75073;SDS011;63652;51.526;5.080;2022-11-15T05:26:07;26.85;;;14.93;;
75073;SDS011;63652;51.526;5.080;2022-11-15T05:28:33;27.45;;;15.38;;
75073;SDS011;63652;51.526;5.080;2022-11-15T05:33:32;33.47;;;14.75;;
75073;SDS011;63652;51.526;5.080;2022-11-15T05:36:06;33.35;;;13.52;;
75073;SDS011;63652;51.526;5.080;2022-11-15T05:38:45;31.35;;;14.30;;
75073;SDS011;63652;51.526;5.080;2022-11-15T05:41:10;29.38;;;13.98;;
75073;SDS011;63652;51.526;5.080;2022-11-15T05:43:36;30.77;;;14.48;;
75073;SDS011;63652;51.526;5.080;2022-11-15T05:46:03;27.60;;;13.90;;
75073;SDS011;63652;51.526;5.080;2022-11-15T05:48:29;27.75;;;14.25;;
75073;SDS011;63652;51.526;5.080;2022-11-15T05:50:55;27.77;;;14.45;;
75073;SDS011;63652;51.526;5.080;2022-11-15T05:53:21;24.30;;;13.23;;
75073;SDS011;63652;51.526;5.080;2022-11-15T05:55:48;25.45;;;13.68;;
75073;SDS011;63652;51.526;5.080;2022-11-15T05:58:13;28.55;;;14.23;;
75073;SDS011;63652;51.526;5.080;2022-11-15T06:00:39;23.00;;;12.70;;
75073;SDS011;63652;51.526;5.080;2022-11-15T06:03:04;29.73;;;12.45;;
75073;SDS011;63652;51.526;5.080;2022-11-15T06:05:30;26.00;;;13.60;;
75073;SDS011;63652;51.526;5.080;2022-11-15T06:07:58;33.97;;;15.25;;
75073;SDS011;63652;51.526;5.080;2022-11-15T06:10:24;25.38;;;13.43;;
75073;SDS011;63652;51.526;5.080;2022-11-15T06:12:59;25.42;;;12.85;;
75073;SDS011;63652;51.526;5.080;2022-11-15T06:15:25;25.40;;;12.50;;
75073;SDS011;63652;51.526;5.080;2022-11-15T06:17:51;26.80;;;13.60;;
75073;SDS011;63652;51.526;5.080;2022-11-15T06:20:16;24.75;;;13.95;;
75073;SDS011;63652;51.526;5.080;2022-11-15T06:22:42;27.73;;;11.85;;
75073;SDS011;63652;51.526;5.080;2022-11-15T06:25:07;26.63;;;12.60;;
75073;SDS011;63652;51.526;5.080;2022-11-15T06:27:33;24.88;;;12.30;;
75073;SDS011;63652;51.526;5.080;2022-11-15T06:29:58;24.65;;;12.25;;
75073;SDS011;63652;51.526;5.080;2022-11-15T06:32:23;24.90;;;12.23;;
75073;SDS011;63652;51.526;5.080;2022-11-15T06:34:55;25.70;;;12.43;;
75073;SDS011;63652;51.526;5.080;2022-11-15T06:37:21;28.10;;;11.95;;
75073;SDS011;63652;51.526;5.080;2022-11-15T06:39:46;24.98;;;11.73;;
75073;SDS011;63652;51.526;5.080;2022-11-15T06:42:12;26.90;;;13.60;;
75073;SDS011;63652;51.526;5.080;2022-11-15T06:44:37;22.42;;;12.88;;
75073;SDS011;63652;51.526;5.080;2022-11-15T06:47:02;34.15;;;14.30;;
75073;SDS011;63652;51.526;5.080;2022-11-15T06:49:28;32.08;;;13.50;;
75073;SDS011;63652;51.526;5.080;2022-11-15T06:51:53;24.65;;;12.82;;
75073;SDS011;63652;51.526;5.080;2022-11-15T06:54:18;21.98;;;11.75;;
75073;SDS011;63652;51.526;5.080;2022-11-15T06:56:45;24.70;;;12.02;;
75073;SDS011;63652;51.526;5.080;2022-11-15T06:59:11;25.20;;;10.93;;
75073;SDS011;63652;51.526;5.080;2022-11-15T07:01:36;23.20;;;13.02;;
75073;SDS011;63652;51.526;5.080;2022-11-15T07:04:01;26.02;;;12.52;;
75073;SDS011;63652;51.526;5.080;2022-11-15T07:06:27;24.77;;;12.88;;
75073;SDS011;63652;51.526;5.080;2022-11-15T07:08:52;26.90;;;13.45;;
75073;SDS011;63652;51.526;5.080;2022-11-15T07:11:17;25.27;;;12.45;;
75073;SDS011;63652;51.526;5.080;2022-11-15T07:13:43;27.05;;;13.27;;
75073;SDS011;63652;51.526;5.080;2022-11-15T07:16:09;25.35;;;12.55;;
75073;SDS011;63652;51.526;5.080;2022-11-15T07:18:38;19.92;;;12.05;;
75073;SDS011;63652;51.526;5.080;2022-11-15T07:21:05;19.42;;;10.68;;
75073;SDS011;63652;51.526;5.080;2022-11-15T07:23:32;22.65;;;10.82;;
75073;SDS011;63652;51.526;5.080;2022-11-15T07:25:58;19.48;;;11.25;;
75073;SDS011;63652;51.526;5.080;2022-11-15T07:28:24;23.15;;;10.70;;
75073;SDS011;63652;51.526;5.080;2022-11-15T07:30:50;21.35;;;11.43;;
75073;SDS011;63652;51.526;5.080;2022-11-15T07:33:16;23.60;;;11.88;;
75073;SDS011;63652;51.526;5.080;2022-11-15T07:35:41;25.60;;;13.38;;
75073;SDS011;63652;51.526;5.080;2022-11-15T07:38:07;28.30;;;14.48;;
75073;SDS011;63652;51.526;5.080;2022-11-15T07:40:33;28.55;;;12.38;;
75073;SDS011;63652;51.526;5.080;2022-11-15T07:42:59;25.80;;;12.95;;
75073;SDS011;63652;51.526;5.080;2022-11-15T07:45:28;25.42;;;14.18;;
75073;SDS011;63652;51.526;5.080;2022-11-15T07:47:54;24.55;;;11.15;;
75073;SDS011;63652;51.526;5.080;2022-11-15T07:50:20;19.45;;;10.30;;
75073;SDS011;63652;51.526;5.080;2022-11-15T07:52:46;21.08;;;12.43;;
75073;SDS011;63652;51.526;5.080;2022-11-15T07:55:13;24.70;;;11.02;;
75073;SDS011;63652;51.526;5.080;2022-11-15T07:57:38;27.88;;;13.05;;
75073;SDS011;63652;51.526;5.080;2022-11-15T08:00:04;21.17;;;11.43;;
75073;SDS011;63652;51.526;5.080;2022-11-15T08:02:31;26.02;;;11.35;;
75073;SDS011;63652;51.526;5.080;2022-11-15T08:04:56;20.17;;;10.15;;
75073;SDS011;63652;51.526;5.080;2022-11-15T08:07:22;22.05;;;9.73;;
75073;SDS011;63652;51.526;5.080;2022-11-15T08:09:47;19.63;;;9.18;;
75073;SDS011;63652;51.526;5.080;2022-11-15T08:12:13;18.38;;;10.25;;
75073;SDS011;63652;51.526;5.080;2022-11-15T08:14:39;14.93;;;7.82;;
75073;SDS011;63652;51.526;5.080;2022-11-15T08:17:04;19.67;;;8.45;;
75073;SDS011;63652;51.526;5.080;2022-11-15T08:19:30;16.60;;;8.93;;
75073;SDS011;63652;51.526;5.080;2022-11-15T08:21:55;17.50;;;8.32;;
75073;SDS011;63652;51.526;5.080;2022-11-15T08:24:20;20.25;;;8.90;;
75073;SDS011;63652;51.526;5.080;2022-11-15T08:26:46;18.50;;;9.05;;
75073;SDS011;63652;51.526;5.080;2022-11-15T08:29:12;18.10;;;8.80;;
75073;SDS011;63652;51.526;5.080;2022-11-15T08:31:37;20.45;;;9.32;;
75073;SDS011;63652;51.526;5.080;2022-11-15T08:34:03;19.50;;;8.68;;
75073;SDS011;63652;51.526;5.080;2022-11-15T08:36:29;16.83;;;9.10;;
75073;SDS011;63652;51.526;5.080;2022-11-15T08:38:54;18.65;;;8.05;;
75073;SDS011;63652;51.526;5.080;2022-11-15T08:41:25;15.50;;;7.03;;
75073;SDS011;63652;51.526;5.080;2022-11-15T08:43:53;14.10;;;8.60;;
75073;SDS011;63652;51.526;5.080;2022-11-15T08:46:18;16.85;;;8.20;;
75073;SDS011;63652;51.526;5.080;2022-11-15T08:48:44;14.35;;;7.53;;
75073;SDS011;63652;51.526;5.080;2022-11-15T08:51:09;13.93;;;6.97;;
75073;SDS011;63652;51.526;5.080;2022-11-15T08:53:35;12.05;;;7.95;;
75073;SDS011;63652;51.526;5.080;2022-11-15T08:56:00;15.45;;;6.38;;
75073;SDS011;63652;51.526;5.080;2022-11-15T08:58:26;13.13;;;6.38;;
75073;SDS011;63652;51.526;5.080;2022-11-15T09:00:51;11.45;;;5.70;;
75073;SDS011;63652;51.526;5.080;2022-11-15T09:03:17;13.73;;;7.13;;
75073;SDS011;63652;51.526;5.080;2022-11-15T09:05:42;11.60;;;6.40;;
75073;SDS011;63652;51.526;5.080;2022-11-15T09:08:07;14.85;;;7.35;;
75073;SDS011;63652;51.526;5.080;2022-11-15T09:10:33;15.27;;;7.18;;
75073;SDS011;63652;51.526;5.080;2022-11-15T09:12:58;15.48;;;6.93;;
75073;SDS011;63652;51.526;5.080;2022-11-15T09:15:24;12.48;;;5.45;;
75073;SDS011;63652;51.526;5.080;2022-11-15T09:17:49;11.30;;;5.90;;
75073;SDS011;63652;51.526;5.080;2022-11-15T09:20:15;12.13;;;6.03;;
75073;SDS011;63652;51.526;5.080;2022-11-15T09:22:40;9.45;;;4.75;;
75073;SDS011;63652;51.526;5.080;2022-11-15T09:25:06;9.55;;;6.30;;
75073;SDS011;63652;51.526;5.080;2022-11-15T09:27:32;8.40;;;4.35;;
75073;SDS011;63652;51.526;5.080;2022-11-15T09:29:57;8.65;;;4.13;;
75073;SDS011;63652;51.526;5.080;2022-11-15T09:32:23;9.23;;;3.53;;
75073;SDS011;63652;51.526;5.080;2022-11-15T09:34:49;11.63;;;4.22;;
75073;SDS011;63652;51.526;5.080;2022-11-15T09:37:14;8.13;;;3.28;;
75073;SDS011;63652;51.526;5.080;2022-11-15T09:39:40;5.20;;;2.65;;
75073;SDS011;63652;51.526;5.080;2022-11-15T09:42:20;5.82;;;2.80;;
75073;SDS011;63652;51.526;5.080;2022-11-15T09:50:12;3.67;;;2.03;;
75073;SDS011;63652;51.526;5.080;2022-11-15T09:52:42;6.32;;;2.28;;
75073;SDS011;63652;51.526;5.080;2022-11-15T09:55:10;3.42;;;1.80;;
75073;SDS011;63652;51.526;5.080;2022-11-15T09:57:44;4.00;;;1.70;;
75073;SDS011;63652;51.526;5.080;2022-11-15T10:05:39;7.45;;;2.25;;
75073;SDS011;63652;51.526;5.080;2022-11-15T10:11:16;3.17;;;1.80;;
75073;SDS011;63652;51.526;5.080;2022-11-15T10:13:50;3.53;;;1.95;;
75073;SDS011;63652;51.526;5.080;2022-11-15T10:16:21;5.82;;;2.15;;
75073;SDS011;63652;51.526;5.080;2022-11-15T10:18:53;4.90;;;2.08;;
75073;SDS011;63652;51.526;5.080;2022-11-15T10:21:50;3.60;;;1.75;;
75073;SDS011;63652;51.526;5.080;2022-11-15T10:24:26;4.82;;;1.80;;
75073;SDS011;63652;51.526;5.080;2022-11-15T10:26:54;4.93;;;1.77;;
75073;SDS011;63652;51.526;5.080;2022-11-15T10:29:21;5.03;;;1.38;;
75073;SDS011;63652;51.526;5.080;2022-11-15T10:31:47;3.72;;;1.50;;
75073;SDS011;63652;51.526;5.080;2022-11-15T10:34:14;3.83;;;1.40;;
75073;SDS011;63652;51.526;5.080;2022-11-15T10:36:54;2.95;;;1.15;;
75073;SDS011;63652;51.526;5.080;2022-11-15T10:39:23;3.83;;;1.25;;
75073;SDS011;63652;51.526;5.080;2022-11-15T10:41:49;7.55;;;1.75;;
75073;SDS011;63652;51.526;5.080;2022-11-15T10:44:22;3.25;;;0.90;;
75073;SDS011;63652;51.526;5.080;2022-11-15T10:49:20;7.00;;;1.30;;
75073;SDS011;63652;51.526;5.080;2022-11-15T10:51:47;2.92;;;1.00;;
75073;SDS011;63652;51.526;5.080;2022-11-15T10:54:19;3.58;;;0.98;;
75073;SDS011;63652;51.526;5.080;2022-11-15T10:56:50;6.63;;;1.33;;
75073;SDS011;63652;51.526;5.080;2022-11-15T10:59:18;3.78;;;0.90;;
75073;SDS011;63652;51.526;5.080;2022-11-15T11:01:51;3.42;;;1.40;;
75073;SDS011;63652;51.526;5.080;2022-11-15T11:04:17;6.63;;;1.60;;
75073;SDS011;63652;51.526;5.080;2022-11-15T11:06:59;3.75;;;0.90;;
75073;SDS011;63652;51.526;5.080;2022-11-15T11:12:03;4.53;;;0.70;;
75073;SDS011;63652;51.526;5.080;2022-11-15T11:14:31;5.32;;;1.00;;
75073;SDS011;63652;51.526;5.080;2022-11-15T11:17:11;4.00;;;1.20;;
75073;SDS011;63652;51.526;5.080;2022-11-15T11:19:50;5.00;;;1.05;;
75073;SDS011;63652;51.526;5.080;2022-11-15T11:22:23;3.42;;;1.05;;
75073;SDS011;63652;51.526;5.080;2022-11-15T11:25:04;5.32;;;1.10;;
75073;SDS011;63652;51.526;5.080;2022-11-15T11:33:22;3.08;;;0.93;;
75073;SDS011;63652;51.526;5.080;2022-11-15T11:38:32;5.45;;;1.17;;
75073;SDS011;63652;51.526;5.080;2022-11-15T11:41:10;9.02;;;0.90;;
75073;SDS011;63652;51.526;5.080;2022-11-15T11:48:58;4.22;;;1.25;;
75073;SDS011;63652;51.526;5.080;2022-11-15T11:51:30;2.80;;;0.63;;
75073;SDS011;63652;51.526;5.080;2022-11-15T11:54:17;4.20;;;0.88;;
75073;SDS011;63652;51.526;5.080;2022-11-15T11:56:47;4.25;;;0.77;;
75073;SDS011;63652;51.526;5.080;2022-11-15T12:01:51;5.72;;;1.77;;
75073;SDS011;63652;51.526;5.080;2022-11-15T12:04:20;2.85;;;0.65;;
75073;SDS011;63652;51.526;5.080;2022-11-15T12:09:23;3.58;;;1.10;;
75073;SDS011;63652;51.526;5.080;2022-11-15T12:14:41;5.35;;;0.82;;
75073;SDS011;63652;51.526;5.080;2022-11-15T12:17:12;3.08;;;0.88;;
75073;SDS011;63652;51.526;5.080;2022-11-15T12:19:38;2.45;;;0.73;;
75073;SDS011;63652;51.526;5.080;2022-11-15T12:22:12;1.80;;;0.60;;
75073;SDS011;63652;51.526;5.080;2022-11-15T12:24:40;5.00;;;1.00;;
75073;SDS011;63652;51.526;5.080;2022-11-15T12:27:20;3.58;;;0.85;;
75073;SDS011;63652;51.526;5.080;2022-11-15T12:30:14;3.22;;;0.75;;
75073;SDS011;63652;51.526;5.080;2022-11-15T12:32:49;1.75;;;0.60;;
75073;SDS011;63652;51.526;5.080;2022-11-15T12:35:25;2.50;;;0.52;;
75073;SDS011;63652;51.526;5.080;2022-11-15T12:37:58;4.05;;;0.70;;
75073;SDS011;63652;51.526;5.080;2022-11-15T12:51:02;5.32;;;0.80;;
75073;SDS011;63652;51.526;5.080;2022-11-15T12:53:31;3.53;;;0.73;;
75073;SDS011;63652;51.526;5.080;2022-11-15T12:58:41;3.67;;;0.60;;
75073;SDS011;63652;51.526;5.080;2022-11-15T13:06:45;5.18;;;0.65;;
75073;SDS011;63652;51.526;5.080;2022-11-15T13:17:15;4.63;;;0.70;;
75073;SDS011;63652;51.526;5.080;2022-11-15T13:19:41;4.15;;;1.20;;
75073;SDS011;63652;51.526;5.080;2022-11-15T13:22:10;2.95;;;0.88;;
75073;SDS011;63652;51.526;5.080;2022-11-15T13:24:55;3.72;;;0.68;;
75073;SDS011;63652;51.526;5.080;2022-11-15T13:27:20;3.53;;;0.70;;
75073;SDS011;63652;51.526;5.080;2022-11-15T13:29:46;1.80;;;0.50;;
75073;SDS011;63652;51.526;5.080;2022-11-15T13:32:15;4.40;;;0.88;;
75073;SDS011;63652;51.526;5.080;2022-11-15T13:34:44;4.18;;;0.60;;
75073;SDS011;63652;51.526;5.080;2022-11-15T13:37:33;3.75;;;0.70;;
75073;SDS011;63652;51.526;5.080;2022-11-15T13:40:20;2.05;;;0.50;;
75073;SDS011;63652;51.526;5.080;2022-11-15T13:42:55;4.68;;;1.20;;
75073;SDS011;63652;51.526;5.080;2022-11-15T13:45:22;4.63;;;0.82;;
75073;SDS011;63652;51.526;5.080;2022-11-15T13:47:55;4.18;;;0.70;;
75073;SDS011;63652;51.526;5.080;2022-11-15T13:50:24;2.25;;;0.80;;
75073;SDS011;63652;51.526;5.080;2022-11-15T13:52:52;6.53;;;0.95;;
75073;SDS011;63652;51.526;5.080;2022-11-15T13:55:19;1.70;;;0.70;;
75073;SDS011;63652;51.526;5.080;2022-11-15T14:00:41;3.67;;;0.73;;
75073;SDS011;63652;51.526;5.080;2022-11-15T14:08:27;3.70;;;0.88;;
75073;SDS011;63652;51.526;5.080;2022-11-15T14:13:39;3.70;;;0.93;;
75073;SDS011;63652;51.526;5.080;2022-11-15T14:18:43;2.30;;;0.70;;
75073;SDS011;63652;51.526;5.080;2022-11-15T14:21:11;2.53;;;0.70;;
75073;SDS011;63652;51.526;5.080;2022-11-15T14:23:36;1.98;;;0.65;;
75073;SDS011;63652;51.526;5.080;2022-11-15T14:26:01;3.17;;;0.95;;
75073;SDS011;63652;51.526;5.080;2022-11-15T14:28:31;1.45;;;0.85;;
75073;SDS011;63652;51.526;5.080;2022-11-15T14:31:01;2.80;;;0.90;;
75073;SDS011;63652;51.526;5.080;2022-11-15T14:33:35;3.00;;;0.93;;
75073;SDS011;63652;51.526;5.080;2022-11-15T14:38:30;4.22;;;1.08;;
75073;SDS011;63652;51.526;5.080;2022-11-15T14:40:55;4.35;;;0.85;;
75073;SDS011;63652;51.526;5.080;2022-11-15T14:43:21;3.60;;;0.82;;
75073;SDS011;63652;51.526;5.080;2022-11-15T14:45:47;5.45;;;0.75;;
75073;SDS011;63652;51.526;5.080;2022-11-15T14:48:13;3.22;;;0.80;;
75073;SDS011;63652;51.526;5.080;2022-11-15T14:50:38;3.80;;;0.95;;
75073;SDS011;63652;51.526;5.080;2022-11-15T14:53:04;4.90;;;1.42;;
75073;SDS011;63652;51.526;5.080;2022-11-15T14:55:30;4.00;;;1.92;;
75073;SDS011;63652;51.526;5.080;2022-11-15T14:57:59;3.15;;;0.90;;
75073;SDS011;63652;51.526;5.080;2022-11-15T15:00:28;4.78;;;1.05;;
75073;SDS011;63652;51.526;5.080;2022-11-15T15:02:54;5.30;;;0.80;;
75073;SDS011;63652;51.526;5.080;2022-11-15T15:05:24;3.70;;;0.80;;
75073;SDS011;63652;51.526;5.080;2022-11-15T15:07:52;2.78;;;0.93;;
75073;SDS011;63652;51.526;5.080;2022-11-15T15:10:18;3.75;;;0.85;;
75073;SDS011;63652;51.526;5.080;2022-11-15T15:12:43;4.38;;;1.10;;
75073;SDS011;63652;51.526;5.080;2022-11-15T15:15:13;4.65;;;1.20;;
75073;SDS011;63652;51.526;5.080;2022-11-15T15:17:43;6.28;;;0.80;;
75073;SDS011;63652;51.526;5.080;2022-11-15T15:20:09;7.80;;;1.20;;
75073;SDS011;63652;51.526;5.080;2022-11-15T15:22:35;2.83;;;0.90;;
75073;SDS011;63652;51.526;5.080;2022-11-15T15:25:00;7.20;;;1.70;;
75073;SDS011;63652;51.526;5.080;2022-11-15T15:27:26;3.10;;;1.23;;
75073;SDS011;63652;51.526;5.080;2022-11-15T15:29:51;3.60;;;0.80;;
75073;SDS011;63652;51.526;5.080;2022-11-15T15:32:16;3.80;;;1.10;;
75073;SDS011;63652;51.526;5.080;2022-11-15T15:34:42;3.97;;;1.17;;
75073;SDS011;63652;51.526;5.080;2022-11-15T15:39:49;4.65;;;1.00;;
75073;SDS011;63652;51.526;5.080;2022-11-15T15:42:18;5.72;;;1.98;;
75073;SDS011;63652;51.526;5.080;2022-11-15T15:44:45;5.57;;;1.70;;
75073;SDS011;63652;51.526;5.080;2022-11-15T15:47:11;5.90;;;1.70;;
75073;SDS011;63652;51.526;5.080;2022-11-15T15:49:37;3.95;;;1.27;;
75073;SDS011;63652;51.526;5.080;2022-11-15T15:52:03;4.53;;;1.08;;
75073;SDS011;63652;51.526;5.080;2022-11-15T15:54:28;2.92;;;1.33;;
75073;SDS011;63652;51.526;5.080;2022-11-15T15:56:53;3.78;;;1.20;;
75073;SDS011;63652;51.526;5.080;2022-11-15T15:59:19;4.45;;;1.80;;
75073;SDS011;63652;51.526;5.080;2022-11-15T16:01:44;2.83;;;1.25;;
75073;SDS011;63652;51.526;5.080;2022-11-15T16:04:09;2.33;;;0.95;;
75073;SDS011;63652;51.526;5.080;2022-11-15T16:06:36;5.20;;;1.48;;
75073;SDS011;63652;51.526;5.080;2022-11-15T16:09:04;3.85;;;1.27;;
75073;SDS011;63652;51.526;5.080;2022-11-15T16:11:30;3.38;;;1.02;;
75073;SDS011;63652;51.526;5.080;2022-11-15T16:13:55;8.07;;;2.45;;
75073;SDS011;63652;51.526;5.080;2022-11-15T16:16:20;3.88;;;1.73;;
75073;SDS011;63652;51.526;5.080;2022-11-15T16:18:46;4.50;;;1.60;;
75073;SDS011;63652;51.526;5.080;2022-11-15T16:21:11;4.50;;;1.52;;
75073;SDS011;63652;51.526;5.080;2022-11-15T16:23:37;6.32;;;1.80;;
75073;SDS011;63652;51.526;5.080;2022-11-15T16:26:04;3.63;;;1.70;;
75073;SDS011;63652;51.526;5.080;2022-11-15T16:28:43;3.97;;;1.80;;
75073;SDS011;63652;51.526;5.080;2022-11-15T16:31:09;5.05;;;1.65;;
75073;SDS011;63652;51.526;5.080;2022-11-15T16:33:35;5.10;;;1.90;;
75073;SDS011;63652;51.526;5.080;2022-11-15T16:36:02;4.88;;;2.08;;
75073;SDS011;63652;51.526;5.080;2022-11-15T16:38:28;5.22;;;2.22;;